sensor_id;sensor_type;location;lat;lon;timestamp;pressure;altitude;pressure_sealevel;temperature;humidity
11017;BME280;54687;50.800;6.772;2024-03-08T00:01:16;99852.81;;;-144.06;52.04
11017;BME280;54687;50.800;6.772;2024-03-08T00:03:46;99865.53;;;-144.06;51.95
11017;BME280;54687;50.800;6.772;2024-03-08T00:06:15;99890.97;;;-144.06;52.22
11017;BME280;54687;50.800;6.772;2024-03-08T00:08:42;99897.31;;;-144.06;52.46
11017;BME280;54687;50.800;6.772;2024-03-08T00:11:11;99867.66;;;-144.06;52.03
11017;BME280;54687;50.800;6.772;2024-03-08T00:13:37;99916.41;;;-144.06;52.07
11017;BME280;54687;50.800;6.772;2024-03-08T00:16:04;99890.97;;;-144.06;52.54
11017;BME280;54687;50.800;6.772;2024-03-08T00:18:31;99882.47;;;-144.06;52.56
11017;BME280;54687;50.800;6.772;2024-03-08T00:20:59;99910.03;;;-144.06;52.34
11017;BME280;54687;50.800;6.772;2024-03-08T00:23:25;99888.84;;;-144.06;52.77
11017;BME280;54687;50.800;6.772;2024-03-08T00:25:53;99910.03;;;-144.06;52.84
11017;BME280;54687;50.800;6.772;2024-03-08T00:28:21;99899.44;;;-144.06;52.90
11017;BME280;54687;50.800;6.772;2024-03-08T00:30:47;99958.81;;;-144.06;52.80
11017;BME280;54687;50.800;6.772;2024-03-08T00:33:14;99895.19;;;-144.06;52.83
11017;BME280;54687;50.800;6.772;2024-03-08T00:35:40;99912.16;;;-144.06;53.04
11017;BME280;54687;50.800;6.772;2024-03-08T00:38:09;99920.66;;;-144.06;53.37
11017;BME280;54687;50.800;6.772;2024-03-08T00:40:36;99916.41;;;-144.06;53.25
11017;BME280;54687;50.800;6.772;2024-03-08T00:43:02;99859.16;;;-144.06;52.88
11017;BME280;54687;50.800;6.772;2024-03-08T00:45:29;99903.69;;;-144.06;53.32
11017;BME280;54687;50.800;6.772;2024-03-08T00:47:56;99912.16;;;-144.06;53.56
11017;BME280;54687;50.800;6.772;2024-03-08T00:50:23;99954.56;;;-144.06;53.64
11017;BME280;54687;50.800;6.772;2024-03-08T00:52:50;99965.16;;;-144.06;53.58
11017;BME280;54687;50.800;6.772;2024-03-08T00:55:18;99946.09;;;-144.06;53.51
11017;BME280;54687;50.800;6.772;2024-03-08T00:57:45;99916.41;;;-144.06;53.29
11017;BME280;54687;50.800;6.772;2024-03-08T01:00:12;99950.31;;;-144.06;53.91
11017;BME280;54687;50.800;6.772;2024-03-08T01:02:39;99818.88;;;-144.06;53.79
11017;BME280;54687;50.800;6.772;2024-03-08T01:05:08;99946.09;;;-144.06;54.00
11017;BME280;54687;50.800;6.772;2024-03-08T01:07:35;99939.72;;;-144.06;53.74
11017;BME280;54687;50.800;6.772;2024-03-08T01:10:02;99958.81;;;-144.06;53.81
11017;BME280;54687;50.800;6.772;2024-03-08T01:12:30;99984.25;;;-144.06;54.03
11017;BME280;54687;50.800;6.772;2024-03-08T01:14:56;99916.41;;;-144.06;53.76
11017;BME280;54687;50.800;6.772;2024-03-08T01:17:24;99971.53;;;-144.06;53.87
11017;BME280;54687;50.800;6.772;2024-03-08T01:19:52;99933.38;;;-144.06;54.00
11017;BME280;54687;50.800;6.772;2024-03-08T01:22:19;99954.56;;;-144.06;53.76
11017;BME280;54687;50.800;6.772;2024-03-08T01:24:46;99946.09;;;-144.06;54.05
11017;BME280;54687;50.800;6.772;2024-03-08T01:27:14;99956.69;;;-144.06;54.47
11017;BME280;54687;50.800;6.772;2024-03-08T01:29:43;99941.84;;;-144.06;54.22
11017;BME280;54687;50.800;6.772;2024-03-08T01:32:10;99935.47;;;-144.06;53.95
11017;BME280;54687;50.800;6.772;2024-03-08T01:34:37;99835.84;;;-144.06;54.66
11017;BME280;54687;50.800;6.772;2024-03-08T01:37:04;99958.81;;;-144.06;54.53
11017;BME280;54687;50.800;6.772;2024-03-08T01:39:32;99975.75;;;-144.06;54.68
11017;BME280;54687;50.800;6.772;2024-03-08T01:41:59;99982.13;;;-144.06;54.58
11017;BME280;54687;50.800;6.772;2024-03-08T01:44:27;99907.91;;;-144.06;54.61
11017;BME280;54687;50.800;6.772;2024-03-08T01:46:55;99967.28;;;-144.06;54.64
11017;BME280;54687;50.800;6.772;2024-03-08T01:49:23;99927.00;;;-144.06;54.79
11017;BME280;54687;50.800;6.772;2024-03-08T01:51:50;99954.56;;;-144.06;54.40
11017;BME280;54687;50.800;6.772;2024-03-08T01:54:18;99950.31;;;-144.06;54.88
11017;BME280;54687;50.800;6.772;2024-03-08T01:56:47;99958.81;;;-144.06;54.35
11017;BME280;54687;50.800;6.772;2024-03-08T01:59:14;99977.88;;;-144.06;55.02
11017;BME280;54687;50.800;6.772;2024-03-08T02:01:42;99954.56;;;-144.06;54.44
11017;BME280;54687;50.800;6.772;2024-03-08T02:04:10;99922.75;;;-144.06;54.89
11017;BME280;54687;50.800;6.772;2024-03-08T02:06:37;99984.25;;;-144.06;54.64
11017;BME280;54687;50.800;6.772;2024-03-08T02:09:04;99937.59;;;-144.06;55.12
11017;BME280;54687;50.800;6.772;2024-03-08T02:11:33;99929.13;;;-144.06;54.68
11017;BME280;54687;50.800;6.772;2024-03-08T02:14:01;99967.28;;;-144.06;55.47
11017;BME280;54687;50.800;6.772;2024-03-08T02:16:30;99971.53;;;-144.06;54.79
11017;BME280;54687;50.800;6.772;2024-03-08T02:18:56;99941.84;;;-144.06;55.45
11017;BME280;54687;50.800;6.772;2024-03-08T02:21:26;100001.22;;;-144.06;55.45
11017;BME280;54687;50.800;6.772;2024-03-08T02:23:53;99958.81;;;-144.06;55.38
11017;BME280;54687;50.800;6.772;2024-03-08T02:26:20;99980.00;;;-144.06;55.38
11017;BME280;54687;50.800;6.772;2024-03-08T02:28:49;100026.66;;;-144.06;55.46
11017;BME280;54687;50.800;6.772;2024-03-08T02:31:16;99954.56;;;-144.06;55.98
11017;BME280;54687;50.800;6.772;2024-03-08T02:33:43;99950.31;;;-144.06;55.40
11017;BME280;54687;50.800;6.772;2024-03-08T02:36:13;99971.53;;;-144.06;55.94
11017;BME280;54687;50.800;6.772;2024-03-08T02:38:41;99999.09;;;-144.06;55.84
11017;BME280;54687;50.800;6.772;2024-03-08T02:41:08;99986.38;;;-144.06;55.84
11017;BME280;54687;50.800;6.772;2024-03-08T02:43:35;99984.25;;;-144.06;55.74
11017;BME280;54687;50.800;6.772;2024-03-08T02:46:02;99999.09;;;-144.06;56.07
11017;BME280;54687;50.800;6.772;2024-03-08T02:48:30;99988.47;;;-144.06;55.92
11017;BME280;54687;50.800;6.772;2024-03-08T02:51:02;100003.31;;;-144.06;55.79
11017;BME280;54687;50.800;6.772;2024-03-08T02:53:29;99808.28;;;-144.06;56.14
11017;BME280;54687;50.800;6.772;2024-03-08T02:55:57;99971.53;;;-144.06;55.83
11017;BME280;54687;50.800;6.772;2024-03-08T02:58:24;99984.25;;;-144.06;56.26
11017;BME280;54687;50.800;6.772;2024-03-08T03:00:51;100028.75;;;-144.06;56.14
11017;BME280;54687;50.800;6.772;2024-03-08T03:03:17;100001.22;;;-144.06;56.00
11017;BME280;54687;50.800;6.772;2024-03-08T03:05:44;99988.47;;;-144.06;56.55
11017;BME280;54687;50.800;6.772;2024-03-08T03:08:10;99984.25;;;-144.06;56.70
11017;BME280;54687;50.800;6.772;2024-03-08T03:10:38;99986.38;;;-144.06;56.68
11017;BME280;54687;50.800;6.772;2024-03-08T03:13:06;100018.16;;;-144.06;56.83
11017;BME280;54687;50.800;6.772;2024-03-08T03:15:34;99992.72;;;-144.06;56.56
11017;BME280;54687;50.800;6.772;2024-03-08T03:18:00;99971.53;;;-144.06;56.57
11017;BME280;54687;50.800;6.772;2024-03-08T03:20:27;99958.81;;;-144.06;56.84
11017;BME280;54687;50.800;6.772;2024-03-08T03:22:58;100001.22;;;-144.06;56.60
11017;BME280;54687;50.800;6.772;2024-03-08T03:25:27;100035.13;;;-144.06;56.83
11017;BME280;54687;50.800;6.772;2024-03-08T03:27:59;99963.03;;;-144.06;56.40
11017;BME280;54687;50.800;6.772;2024-03-08T03:30:27;100028.75;;;-144.06;56.74
11017;BME280;54687;50.800;6.772;2024-03-08T03:32:58;99992.72;;;-144.06;57.22
11017;BME280;54687;50.800;6.772;2024-03-08T03:35:26;100016.03;;;-144.06;57.16
11017;BME280;54687;50.800;6.772;2024-03-08T03:37:53;100022.41;;;-144.06;57.04
11017;BME280;54687;50.800;6.772;2024-03-08T03:40:28;99992.72;;;-144.06;57.12
11017;BME280;54687;50.800;6.772;2024-03-08T03:42:54;99933.38;;;-144.06;56.91
11017;BME280;54687;50.800;6.772;2024-03-08T03:45:21;99988.47;;;-144.06;57.04
11017;BME280;54687;50.800;6.772;2024-03-08T03:47:49;100030.88;;;-144.06;56.80
11017;BME280;54687;50.800;6.772;2024-03-08T03:50:17;100043.59;;;-144.06;56.88
11017;BME280;54687;50.800;6.772;2024-03-08T03:52:44;100011.81;;;-144.06;56.98
11017;BME280;54687;50.800;6.772;2024-03-08T03:55:12;100016.03;;;-144.06;56.70
11017;BME280;54687;50.800;6.772;2024-03-08T03:57:38;100009.69;;;-144.06;56.84
11017;BME280;54687;50.800;6.772;2024-03-08T04:00:06;99958.81;;;-144.06;56.74
11017;BME280;54687;50.800;6.772;2024-03-08T04:02:36;100018.16;;;-144.06;56.96
11017;BME280;54687;50.800;6.772;2024-03-08T04:05:05;100016.03;;;-144.06;56.77
11017;BME280;54687;50.800;6.772;2024-03-08T04:07:33;100022.41;;;-144.06;57.17
11017;BME280;54687;50.800;6.772;2024-03-08T04:09:59;100026.66;;;-144.06;57.38
11017;BME280;54687;50.800;6.772;2024-03-08T04:12:26;100022.41;;;-144.06;57.34
11017;BME280;54687;50.800;6.772;2024-03-08T04:14:54;100018.16;;;-144.06;56.99
11017;BME280;54687;50.800;6.772;2024-03-08T04:17:21;100026.66;;;-144.06;57.10
11017;BME280;54687;50.800;6.772;2024-03-08T04:19:47;99999.09;;;-144.06;57.03
11017;BME280;54687;50.800;6.772;2024-03-08T04:22:15;100022.41;;;-144.06;56.85
11017;BME280;54687;50.800;6.772;2024-03-08T04:24:43;100024.53;;;-144.06;56.95
11017;BME280;54687;50.800;6.772;2024-03-08T04:27:11;99980.00;;;-144.06;57.00
11017;BME280;54687;50.800;6.772;2024-03-08T04:29:38;100007.56;;;-144.06;57.12
11017;BME280;54687;50.800;6.772;2024-03-08T04:32:05;100001.22;;;-144.06;57.32
11017;BME280;54687;50.800;6.772;2024-03-08T04:34:34;100043.59;;;-144.06;57.20
11017;BME280;54687;50.800;6.772;2024-03-08T04:37:01;100022.41;;;-144.06;57.29
11017;BME280;54687;50.800;6.772;2024-03-08T04:39:31;100064.81;;;-144.06;57.17
11017;BME280;54687;50.800;6.772;2024-03-08T04:42:00;100039.38;;;-144.06;57.35
11017;BME280;54687;50.800;6.772;2024-03-08T04:44:29;100001.22;;;-144.06;57.24
11017;BME280;54687;50.800;6.772;2024-03-08T04:46:56;100058.44;;;-144.06;57.19
11017;BME280;54687;50.800;6.772;2024-03-08T04:49:23;100013.94;;;-144.06;57.33
11017;BME280;54687;50.800;6.772;2024-03-08T04:51:50;100013.94;;;-144.06;57.13
11017;BME280;54687;50.800;6.772;2024-03-08T04:54:16;100013.94;;;-144.06;57.27
11017;BME280;54687;50.800;6.772;2024-03-08T04:56:44;100018.16;;;-144.06;57.38
11017;BME280;54687;50.800;6.772;2024-03-08T04:59:11;100041.50;;;-144.06;57.51
11017;BME280;54687;50.800;6.772;2024-03-08T05:01:39;100037.25;;;-144.06;57.30
11017;BME280;54687;50.800;6.772;2024-03-08T05:04:05;100060.56;;;-144.06;57.24
11017;BME280;54687;50.800;6.772;2024-03-08T05:06:32;100060.56;;;-144.06;57.63
11017;BME280;54687;50.800;6.772;2024-03-08T05:08:59;100043.59;;;-144.06;57.61
11017;BME280;54687;50.800;6.772;2024-03-08T05:11:26;100052.09;;;-144.06;57.56
11017;BME280;54687;50.800;6.772;2024-03-08T05:13:55;100022.41;;;-144.06;57.63
11017;BME280;54687;50.800;6.772;2024-03-08T05:16:24;100043.59;;;-144.06;57.46
11017;BME280;54687;50.800;6.772;2024-03-08T05:18:51;100047.84;;;-144.06;57.62
11017;BME280;54687;50.800;6.772;2024-03-08T05:21:17;100039.38;;;-144.06;57.44
11017;BME280;54687;50.800;6.772;2024-03-08T05:23:45;100039.38;;;-144.06;57.43
11017;BME280;54687;50.800;6.772;2024-03-08T05:26:12;100035.13;;;-144.06;57.36
11017;BME280;54687;50.800;6.772;2024-03-08T05:28:39;100035.13;;;-144.06;57.54
11017;BME280;54687;50.800;6.772;2024-03-08T05:31:07;100102.97;;;-144.06;57.41
11017;BME280;54687;50.800;6.772;2024-03-08T05:33:34;100052.09;;;-144.06;57.27
11017;BME280;54687;50.800;6.772;2024-03-08T05:36:01;100060.56;;;-144.06;57.66
11017;BME280;54687;50.800;6.772;2024-03-08T05:38:27;100043.59;;;-144.06;57.68
11017;BME280;54687;50.800;6.772;2024-03-08T05:40:53;100037.25;;;-144.06;57.54
11017;BME280;54687;50.800;6.772;2024-03-08T05:43:20;100035.13;;;-144.06;57.34
11017;BME280;54687;50.800;6.772;2024-03-08T05:45:46;100016.03;;;-144.06;57.37
11017;BME280;54687;50.800;6.772;2024-03-08T05:48:14;100026.66;;;-144.06;57.46
11017;BME280;54687;50.800;6.772;2024-03-08T05:50:43;100086.00;;;-144.06;57.31
11017;BME280;54687;50.800;6.772;2024-03-08T05:53:11;100026.66;;;-144.06;57.63
11017;BME280;54687;50.800;6.772;2024-03-08T05:55:38;100030.88;;;-144.06;57.30
11017;BME280;54687;50.800;6.772;2024-03-08T05:58:05;100022.41;;;-144.06;57.17
11017;BME280;54687;50.800;6.772;2024-03-08T06:00:33;100022.41;;;-144.06;57.43
11017;BME280;54687;50.800;6.772;2024-03-08T06:03:02;100056.31;;;-144.06;57.60
11017;BME280;54687;50.800;6.772;2024-03-08T06:05:30;100022.41;;;-144.06;57.78
11017;BME280;54687;50.800;6.772;2024-03-08T06:07:57;100064.81;;;-144.06;57.82
11017;BME280;54687;50.800;6.772;2024-03-08T06:10:23;100049.97;;;-144.06;57.87
11017;BME280;54687;50.800;6.772;2024-03-08T06:12:50;100039.38;;;-144.06;57.72
11017;BME280;54687;50.800;6.772;2024-03-08T06:15:17;100066.94;;;-144.06;57.63
11017;BME280;54687;50.800;6.772;2024-03-08T06:17:46;100056.31;;;-144.06;57.58
11017;BME280;54687;50.800;6.772;2024-03-08T06:20:12;100026.66;;;-144.06;57.20
11017;BME280;54687;50.800;6.772;2024-03-08T06:22:40;100041.50;;;-144.06;57.46
11017;BME280;54687;50.800;6.772;2024-03-08T06:25:08;100045.72;;;-144.06;57.44
11017;BME280;54687;50.800;6.772;2024-03-08T06:27:36;100041.50;;;-144.06;57.27
11017;BME280;54687;50.800;6.772;2024-03-08T06:30:03;100009.69;;;-144.06;57.42
11017;BME280;54687;50.800;6.772;2024-03-08T06:32:31;100293.78;;;-144.06;57.32
11017;BME280;54687;50.800;6.772;2024-03-08T06:35:01;100035.13;;;-144.06;57.68
11017;BME280;54687;50.800;6.772;2024-03-08T06:37:27;99876.13;;;-144.06;57.42
11017;BME280;54687;50.800;6.772;2024-03-08T06:39:55;100003.31;;;-144.06;57.50
11017;BME280;54687;50.800;6.772;2024-03-08T06:42:22;99984.25;;;-144.06;57.28
11017;BME280;54687;50.800;6.772;2024-03-08T06:44:49;100215.34;;;-144.06;57.08
11017;BME280;54687;50.800;6.772;2024-03-08T06:47:15;100033.00;;;-144.06;57.20
11017;BME280;54687;50.800;6.772;2024-03-08T06:49:42;100049.97;;;-144.06;56.54
11017;BME280;54687;50.800;6.772;2024-03-08T06:52:09;100005.44;;;-144.06;56.92
11017;BME280;54687;50.800;6.772;2024-03-08T06:54:36;99882.47;;;-144.06;56.61
11017;BME280;54687;50.800;6.772;2024-03-08T06:57:04;100039.38;;;-144.06;56.58
11017;BME280;54687;50.800;6.772;2024-03-08T06:59:31;99975.75;;;-144.06;56.84
11017;BME280;54687;50.800;6.772;2024-03-08T07:01:58;100013.94;;;-144.06;56.67
11017;BME280;54687;50.800;6.772;2024-03-08T07:04:25;99982.13;;;-144.06;56.58
11017;BME280;54687;50.800;6.772;2024-03-08T07:06:55;99971.53;;;-144.06;56.29
11017;BME280;54687;50.800;6.772;2024-03-08T07:09:22;100009.69;;;-144.06;56.24
11017;BME280;54687;50.800;6.772;2024-03-08T07:11:49;99992.72;;;-144.06;55.98
11017;BME280;54687;50.800;6.772;2024-03-08T07:14:21;100181.41;;;-144.06;56.09
11017;BME280;54687;50.800;6.772;2024-03-08T07:16:48;100013.94;;;-144.06;56.04
11017;BME280;54687;50.800;6.772;2024-03-08T07:19:15;100005.44;;;-144.06;55.51
11017;BME280;54687;50.800;6.772;2024-03-08T07:21:42;99988.47;;;-144.06;55.94
11017;BME280;54687;50.800;6.772;2024-03-08T07:24:09;99963.03;;;-144.06;55.38
11017;BME280;54687;50.800;6.772;2024-03-08T07:26:53;99742.56;;;-144.06;55.37
11017;BME280;54687;50.800;6.772;2024-03-08T07:29:22;99960.94;;;-144.06;55.38
11017;BME280;54687;50.800;6.772;2024-03-08T07:31:49;99899.44;;;-144.06;55.33
11017;BME280;54687;50.800;6.772;2024-03-08T07:34:21;99937.59;;;-144.06;54.64
11017;BME280;54687;50.800;6.772;2024-03-08T07:36:48;99946.09;;;-144.06;54.87
11017;BME280;54687;50.800;6.772;2024-03-08T07:39:16;99929.13;;;-144.06;54.76
11017;BME280;54687;50.800;6.772;2024-03-08T07:41:43;99869.75;;;-144.06;54.62
11017;BME280;54687;50.800;6.772;2024-03-08T07:44:10;99933.38;;;-144.06;54.50
11017;BME280;54687;50.800;6.772;2024-03-08T07:46:38;99865.53;;;-144.06;54.55
11017;BME280;54687;50.800;6.772;2024-03-08T07:49:04;99874.00;;;-144.06;54.26
11017;BME280;54687;50.800;6.772;2024-03-08T07:51:35;99912.16;;;-144.06;54.41
11017;BME280;54687;50.800;6.772;2024-03-08T07:54:02;99922.75;;;-144.06;53.99
11017;BME280;54687;50.800;6.772;2024-03-08T07:56:30;99857.03;;;-144.06;53.75
11017;BME280;54687;50.800;6.772;2024-03-08T07:58:56;99899.44;;;-144.06;53.80
11017;BME280;54687;50.800;6.772;2024-03-08T08:01:23;99920.66;;;-144.06;53.77
11017;BME280;54687;50.800;6.772;2024-03-08T08:03:51;99882.47;;;-144.06;53.87
11017;BME280;54687;50.800;6.772;2024-03-08T08:06:17;99867.66;;;-144.06;53.43
11017;BME280;54687;50.800;6.772;2024-03-08T08:08:45;99869.75;;;-144.06;53.17
11017;BME280;54687;50.800;6.772;2024-03-08T08:11:11;99865.53;;;-144.06;52.61
11017;BME280;54687;50.800;6.772;2024-03-08T08:13:38;99890.97;;;-144.06;52.44
11017;BME280;54687;50.800;6.772;2024-03-08T08:16:04;99831.59;;;-144.06;52.34
11017;BME280;54687;50.800;6.772;2024-03-08T08:18:32;99804.03;;;-144.06;52.44
11017;BME280;54687;50.800;6.772;2024-03-08T08:21:01;99795.56;;;-144.06;51.82
11017;BME280;54687;50.800;6.772;2024-03-08T08:23:28;99865.53;;;-144.06;52.20
11017;BME280;54687;50.800;6.772;2024-03-08T08:25:55;99812.53;;;-144.06;52.12
11017;BME280;54687;50.800;6.772;2024-03-08T08:28:22;99810.41;;;-144.06;51.92
11017;BME280;54687;50.800;6.772;2024-03-08T08:30:50;99816.75;;;-144.06;52.15
11017;BME280;54687;50.800;6.772;2024-03-08T08:33:16;99808.28;;;-144.06;51.54
11017;BME280;54687;50.800;6.772;2024-03-08T08:35:43;99780.72;;;-144.06;51.41
11017;BME280;54687;50.800;6.772;2024-03-08T08:38:11;99784.97;;;-144.06;51.04
11017;BME280;54687;50.800;6.772;2024-03-08T08:40:38;99778.59;;;-144.06;50.87
11017;BME280;54687;50.800;6.772;2024-03-08T08:43:04;99755.28;;;-144.06;51.00
11017;BME280;54687;50.800;6.772;2024-03-08T08:45:32;99678.97;;;-144.06;51.13
11017;BME280;54687;50.800;6.772;2024-03-08T08:47:59;99734.09;;;-144.06;50.55
11017;BME280;54687;50.800;6.772;2024-03-08T08:50:26;99753.16;;;-144.06;50.36
11017;BME280;54687;50.800;6.772;2024-03-08T08:52:54;99670.50;;;-144.06;50.40
11017;BME280;54687;50.800;6.772;2024-03-08T08:55:22;99729.84;;;-144.06;50.50
11017;BME280;54687;50.800;6.772;2024-03-08T08:57:50;99424.59;;;-144.06;49.98
11017;BME280;54687;50.800;6.772;2024-03-08T09:00:18;99734.09;;;-144.06;49.57
11017;BME280;54687;50.800;6.772;2024-03-08T09:02:46;99691.69;;;-144.06;49.63
11017;BME280;54687;50.800;6.772;2024-03-08T09:05:13;99687.44;;;-144.06;49.76
11017;BME280;54687;50.800;6.772;2024-03-08T09:07:42;99704.41;;;-144.06;49.84
11017;BME280;54687;50.800;6.772;2024-03-08T09:10:10;99655.66;;;-144.06;49.57
11017;BME280;54687;50.800;6.772;2024-03-08T09:12:40;99664.13;;;-144.06;49.34
11017;BME280;54687;50.800;6.772;2024-03-08T09:15:07;99653.53;;;-144.06;48.90
11017;BME280;54687;50.800;6.772;2024-03-08T09:17:36;99617.50;;;-144.06;49.17
11017;BME280;54687;50.800;6.772;2024-03-08T09:20:06;99592.06;;;-144.06;49.37
11017;BME280;54687;50.800;6.772;2024-03-08T09:22:34;99602.66;;;-144.06;48.02
11017;BME280;54687;50.800;6.772;2024-03-08T09:25:00;99613.25;;;-144.06;47.35
11017;BME280;54687;50.800;6.772;2024-03-08T09:27:27;99606.88;;;-144.06;46.92
11017;BME280;54687;50.800;6.772;2024-03-08T09:29:56;99621.72;;;-144.06;46.87
11017;BME280;54687;50.800;6.772;2024-03-08T09:32:23;99570.84;;;-144.06;47.07
11017;BME280;54687;50.800;6.772;2024-03-08T09:34:49;99564.50;;;-144.06;46.83
11017;BME280;54687;50.800;6.772;2024-03-08T09:37:16;99568.72;;;-144.06;46.60
11017;BME280;54687;50.800;6.772;2024-03-08T09:39:44;99568.72;;;-144.06;45.94
11017;BME280;54687;50.800;6.772;2024-03-08T09:42:11;99517.84;;;-144.06;45.82
11017;BME280;54687;50.800;6.772;2024-03-08T09:44:44;99511.50;;;-144.06;45.73
11017;BME280;54687;50.800;6.772;2024-03-08T09:47:13;99534.81;;;-144.06;46.07
11017;BME280;54687;50.800;6.772;2024-03-08T09:49:40;99496.66;;;-144.06;45.97
11017;BME280;54687;50.800;6.772;2024-03-08T09:52:07;99346.16;;;-144.06;44.99
11017;BME280;54687;50.800;6.772;2024-03-08T09:54:35;99486.06;;;-144.06;45.56
11017;BME280;54687;50.800;6.772;2024-03-08T09:57:03;99496.66;;;-144.06;44.84
11017;BME280;54687;50.800;6.772;2024-03-08T09:59:30;99466.97;;;-144.06;45.25
11017;BME280;54687;50.800;6.772;2024-03-08T10:02:17;99433.06;;;-144.06;44.44
11017;BME280;54687;50.800;6.772;2024-03-08T10:04:44;99473.34;;;-144.06;44.58
11017;BME280;54687;50.800;6.772;2024-03-08T10:07:12;99301.66;;;-144.06;44.67
11017;BME280;54687;50.800;6.772;2024-03-08T10:09:39;99430.94;;;-144.06;43.63
11017;BME280;54687;50.800;6.772;2024-03-08T10:12:07;99409.75;;;-144.06;44.10
11017;BME280;54687;50.800;6.772;2024-03-08T10:14:39;99348.28;;;-144.06;43.90
11017;BME280;54687;50.800;6.772;2024-03-08T10:17:05;99409.75;;;-144.06;43.62
11017;BME280;54687;50.800;6.772;2024-03-08T10:19:36;99433.06;;;-144.06;43.33
11017;BME280;54687;50.800;6.772;2024-03-08T10:22:03;99293.16;;;-144.06;43.36
11017;BME280;54687;50.800;6.772;2024-03-08T10:24:30;99337.69;;;-144.06;43.30
11017;BME280;54687;50.800;6.772;2024-03-08T10:26:59;99386.44;;;-144.06;43.23
11017;BME280;54687;50.800;6.772;2024-03-08T10:29:27;99377.94;;;-144.06;43.34
11017;BME280;54687;50.800;6.772;2024-03-08T10:31:54;99382.19;;;-144.06;42.60
11017;BME280;54687;50.800;6.772;2024-03-08T10:34:21;99367.34;;;-144.06;42.73
11017;BME280;54687;50.800;6.772;2024-03-08T10:36:50;99365.25;;;-144.06;42.58
11017;BME280;54687;50.800;6.772;2024-03-08T10:39:21;99369.47;;;-144.06;41.96
11017;BME280;54687;50.800;6.772;2024-03-08T10:41:53;99399.16;;;-144.06;42.62
11017;BME280;54687;50.800;6.772;2024-03-08T10:44:40;99344.03;;;-144.06;42.44
11017;BME280;54687;50.800;6.772;2024-03-08T10:47:17;99344.03;;;-144.06;42.73
11017;BME280;54687;50.800;6.772;2024-03-08T10:49:51;99322.84;;;-144.06;42.48
11017;BME280;54687;50.800;6.772;2024-03-08T10:52:22;99356.75;;;-144.06;42.08
11017;BME280;54687;50.800;6.772;2024-03-08T10:54:52;99339.81;;;-144.06;42.09
11017;BME280;54687;50.800;6.772;2024-03-08T10:57:20;99318.59;;;-144.06;42.41
11017;BME280;54687;50.800;6.772;2024-03-08T10:59:49;99312.25;;;-144.06;41.68
11017;BME280;54687;50.800;6.772;2024-03-08T11:02:17;99301.66;;;-144.06;41.14
11017;BME280;54687;50.800;6.772;2024-03-08T11:04:48;99269.84;;;-144.06;41.35
11017;BME280;54687;50.800;6.772;2024-03-08T11:07:17;99310.13;;;-144.06;41.39
11017;BME280;54687;50.800;6.772;2024-03-08T11:09:47;99263.50;;;-144.06;41.35
11017;BME280;54687;50.800;6.772;2024-03-08T11:12:25;99282.56;;;-144.06;40.41
11017;BME280;54687;50.800;6.772;2024-03-08T11:14:55;99267.72;;;-144.06;40.27
11017;BME280;54687;50.800;6.772;2024-03-08T11:17:26;99255.00;;;-144.06;40.67
11017;BME280;54687;50.800;6.772;2024-03-08T11:20:10;99238.06;;;-144.06;41.04
11017;BME280;54687;50.800;6.772;2024-03-08T11:22:41;99458.50;;;-144.06;40.53
11017;BME280;54687;50.800;6.772;2024-03-08T11:25:31;99178.72;;;-144.06;40.99
11017;BME280;54687;50.800;6.772;2024-03-08T11:28:22;99238.06;;;-144.06;41.04
11017;BME280;54687;50.800;6.772;2024-03-08T11:31:23;99017.63;;;-144.06;40.30
11017;BME280;54687;50.800;6.772;2024-03-08T11:33:50;99208.38;;;-144.06;39.73
11017;BME280;54687;50.800;6.772;2024-03-08T11:36:20;99244.41;;;-144.06;40.17
11017;BME280;54687;50.800;6.772;2024-03-08T11:38:48;99225.34;;;-144.06;39.59
11017;BME280;54687;50.800;6.772;2024-03-08T11:41:16;99225.34;;;-144.06;39.74
11017;BME280;54687;50.800;6.772;2024-03-08T11:43:43;99225.34;;;-144.06;39.42
11017;BME280;54687;50.800;6.772;2024-03-08T11:46:10;99238.06;;;-144.06;39.27
11017;BME280;54687;50.800;6.772;2024-03-08T11:48:37;99204.16;;;-144.06;39.83
11017;BME280;54687;50.800;6.772;2024-03-08T11:51:04;99214.75;;;-144.06;39.68
11017;BME280;54687;50.800;6.772;2024-03-08T11:53:31;99144.78;;;-144.06;39.97
11017;BME280;54687;50.800;6.772;2024-03-08T11:56:06;99157.50;;;-144.06;39.98
11017;BME280;54687;50.800;6.772;2024-03-08T11:58:34;99121.47;;;-144.06;39.44
11017;BME280;54687;50.800;6.772;2024-03-08T12:01:03;99170.22;;;-144.06;39.20
11017;BME280;54687;50.800;6.772;2024-03-08T12:03:31;99159.63;;;-144.06;39.45
11017;BME280;54687;50.800;6.772;2024-03-08T12:05:59;99187.19;;;-144.06;39.08
11017;BME280;54687;50.800;6.772;2024-03-08T12:08:26;99066.38;;;-144.06;39.44
11017;BME280;54687;50.800;6.772;2024-03-08T12:10:55;99146.91;;;-144.06;38.97
11017;BME280;54687;50.800;6.772;2024-03-08T12:13:25;99199.91;;;-144.06;39.20
11017;BME280;54687;50.800;6.772;2024-03-08T12:15:56;99100.28;;;-144.06;39.59
11017;BME280;54687;50.800;6.772;2024-03-08T12:18:24;99734.09;;;-144.06;39.67
11017;BME280;54687;50.800;6.772;2024-03-08T12:20:52;99149.03;;;-144.06;39.16
11017;BME280;54687;50.800;6.772;2024-03-08T12:23:19;99140.56;;;-144.06;39.30
11017;BME280;54687;50.800;6.772;2024-03-08T12:25:45;99174.47;;;-144.06;39.12
11017;BME280;54687;50.800;6.772;2024-03-08T12:28:13;99204.16;;;-144.06;38.97
11017;BME280;54687;50.800;6.772;2024-03-08T12:30:46;99166.00;;;-144.06;38.86
11017;BME280;54687;50.800;6.772;2024-03-08T12:33:15;99195.66;;;-144.06;38.78
11017;BME280;54687;50.800;6.772;2024-03-08T12:35:50;99166.00;;;-144.06;39.29
11017;BME280;54687;50.800;6.772;2024-03-08T12:38:20;99153.28;;;-144.06;39.13
11017;BME280;54687;50.800;6.772;2024-03-08T12:40:50;99032.47;;;-144.06;39.39
11017;BME280;54687;50.800;6.772;2024-03-08T12:43:21;99149.03;;;-144.06;39.07